createdAt,value
2018-06-07T00:00:18.190Z,31.10
2018-06-07T00:02:48.613Z,31.40
2018-06-07T00:05:18.990Z,31.40
2018-06-07T00:07:49.286Z,31.40
2018-06-07T00:10:19.609Z,31.30
2018-06-07T00:12:49.875Z,31.40
2018-06-07T00:15:20.249Z,31.20
2018-06-07T00:17:50.600Z,31.30
2018-06-07T00:20:20.873Z,31.20
2018-06-07T00:25:21.104Z,31.30
2018-06-07T00:27:51.459Z,31.20
2018-06-07T00:30:21.788Z,31.20
2018-06-07T00:32:52.356Z,31.30
2018-06-07T00:35:22.664Z,31.10
2018-06-07T00:37:52.943Z,31.50
2018-06-07T00:42:53.263Z,32.10
2018-06-07T00:45:23.525Z,31.70
2018-06-07T00:47:53.837Z,31.90
2018-06-07T00:50:24.205Z,32.00
2018-06-07T00:52:54.700Z,32.20
2018-06-07T00:55:25.014Z,32.40
2018-06-07T00:57:55.351Z,32.40
2018-06-07T01:00:25.679Z,32.60
2018-06-07T01:02:56.086Z,32.60
2018-06-07T01:05:26.990Z,32.70
2018-06-07T01:10:27.199Z,33.10
2018-06-07T01:12:57.702Z,33.20
2018-06-07T01:17:57.905Z,33.20
2018-06-07T01:20:28.218Z,32.80
2018-06-07T01:25:28.455Z,33.00
2018-06-07T01:27:58.751Z,33.10
2018-06-07T01:30:34.749Z,33.30
2018-06-07T01:33:39.932Z,32.90
2018-06-07T01:36:10.285Z,33.70
2018-06-07T01:39:06.015Z,33.10
2018-06-07T01:44:06.344Z,33.40
2018-06-07T01:46:37.414Z,33.50
2018-06-07T01:49:07.799Z,33.50
2018-06-07T01:51:38.128Z,33.30
2018-06-07T01:54:08.654Z,33.30
2018-06-07T01:56:38.950Z,33.60
2018-06-07T01:59:09.225Z,33.40
2018-06-07T02:01:39.492Z,33.30
2018-06-07T02:06:39.900Z,33.40
2018-06-07T02:09:10.204Z,33.50
2018-06-07T02:11:40.528Z,33.30
2018-06-07T02:14:10.886Z,33.80
2018-06-07T02:19:11.300Z,33.60
2018-06-07T02:21:41.568Z,33.80
2018-06-07T02:24:11.902Z,33.60
2018-06-07T02:26:42.424Z,33.40
2018-06-07T02:29:12.684Z,33.20
2018-06-07T02:31:43.025Z,33.50
2018-06-07T02:34:13.300Z,34.10
2018-06-07T02:36:43.729Z,33.40
2018-06-07T02:41:43.855Z,34.00
2018-06-07T02:44:14.263Z,33.80
2018-06-07T02:46:44.573Z,33.90
2018-06-07T02:49:14.932Z,33.50
2018-06-07T02:51:45.239Z,33.20
2018-06-07T02:54:15.644Z,33.40
2018-06-07T02:56:46.002Z,33.30
2018-06-07T02:59:16.312Z,33.60
2018-06-07T03:01:46.688Z,33.80
2018-06-07T03:04:17.065Z,33.80
2018-06-07T03:09:17.356Z,33.40
2018-06-07T03:11:47.699Z,33.70
2018-06-07T03:14:18.028Z,33.20
2018-06-07T03:16:48.463Z,33.20
2018-06-07T03:19:18.720Z,33.40
2018-06-07T03:21:49.076Z,33.40
2018-06-07T03:24:19.461Z,33.40
2018-06-07T03:26:49.682Z,33.70
2018-06-07T03:29:19.994Z,33.50
2018-06-07T03:31:50.331Z,33.60
2018-06-07T03:34:20.678Z,33.70
2018-06-07T03:36:51.004Z,34.20
2018-06-07T03:39:21.307Z,33.40
2018-06-07T03:41:51.562Z,33.40
2018-06-07T03:44:22.045Z,33.60
2018-06-07T03:46:52.388Z,33.50
2018-06-07T03:49:22.606Z,33.80
2018-06-07T03:51:52.868Z,33.70
2018-06-07T03:54:23.341Z,34.00
2018-06-07T03:56:53.773Z,33.90
2018-06-07T03:59:24.076Z,34.00
2018-06-07T04:01:54.452Z,33.60
2018-06-07T04:04:25.323Z,33.70
2018-06-07T04:06:56.503Z,33.70
2018-06-07T04:09:26.803Z,33.80
2018-06-07T04:11:57.147Z,33.80
2018-06-07T04:16:57.552Z,33.50
2018-06-07T04:19:27.971Z,34.00
2018-06-07T04:21:58.270Z,33.90
2018-06-07T04:24:28.587Z,34.40
2018-06-07T04:26:58.881Z,33.90
2018-06-07T04:29:29.180Z,34.50
2018-06-07T04:31:59.462Z,33.90
2018-06-07T04:39:29.888Z,33.90
2018-06-07T04:42:00.160Z,33.60
2018-06-07T04:44:30.644Z,33.00
2018-06-07T04:47:00.998Z,33.20
2018-06-07T04:49:31.303Z,34.10
2018-06-07T04:52:01.565Z,33.30
2018-06-07T04:54:31.886Z,33.20
2018-06-07T04:59:32.103Z,32.90
2018-06-07T05:02:02.473Z,33.10
2018-06-07T05:04:32.860Z,33.50
2018-06-07T05:07:03.414Z,33.40
2018-06-07T05:09:33.682Z,33.80
2018-06-07T05:12:03.943Z,33.70
2018-06-07T05:14:34.264Z,33.80
2018-06-07T05:17:05.135Z,32.80
2018-06-07T05:19:35.424Z,33.40
2018-06-07T05:22:05.716Z,33.00
2018-06-07T05:27:06.089Z,33.50
2018-06-07T05:29:36.416Z,33.20
2018-06-07T05:32:06.763Z,33.10
2018-06-07T05:34:37.113Z,33.40
2018-06-07T05:39:37.366Z,32.40
2018-06-07T05:42:07.611Z,32.20
2018-06-07T05:44:38.005Z,32.50
2018-06-07T05:47:08.394Z,33.40
2018-06-07T05:52:08.714Z,32.70
2018-06-07T05:54:39.035Z,32.50
2018-06-07T05:57:09.389Z,32.60
2018-06-07T05:59:39.822Z,33.30
2018-06-07T06:02:10.104Z,32.80
2018-06-07T06:04:40.473Z,32.90
2018-06-07T06:07:10.776Z,33.00
2018-06-07T06:09:41.283Z,33.10
2018-06-07T06:12:11.645Z,31.90
2018-06-07T06:14:41.944Z,32.90
2018-06-07T06:17:12.405Z,31.90
2018-06-07T06:19:42.771Z,32.50
2018-06-07T06:22:13.130Z,32.40
2018-06-07T06:24:43.563Z,31.50
2018-06-07T06:27:13.960Z,31.40
2018-06-07T06:29:44.291Z,31.20
2018-06-07T06:32:14.518Z,31.10
2018-06-07T06:34:45.006Z,31.80
2018-06-07T06:37:15.572Z,31.60
2018-06-07T06:39:45.918Z,32.00
2018-06-07T06:42:16.241Z,31.50
2018-06-07T06:44:47.035Z,31.30
2018-06-07T06:52:17.187Z,31.20
2018-06-07T06:54:47.646Z,30.50
2018-06-07T06:57:17.983Z,31.20
2018-06-07T06:59:48.301Z,30.50
2018-06-07T07:02:18.620Z,30.50
2018-06-07T07:04:49.046Z,30.70
2018-06-07T07:07:19.360Z,30.00
2018-06-07T07:09:49.686Z,29.80
2018-06-07T07:12:19.947Z,29.50
2018-06-07T07:17:21.076Z,29.90
2018-06-07T07:19:51.451Z,29.80
2018-06-07T07:22:21.650Z,30.00
2018-06-07T07:24:52.264Z,30.00
2018-06-07T07:27:22.507Z,29.70
2018-06-07T07:29:52.775Z,29.70
2018-06-07T07:32:23.068Z,30.00
2018-06-07T07:37:23.941Z,29.40
2018-06-07T07:39:54.246Z,28.50
2018-06-07T07:42:24.568Z,28.40
2018-06-07T07:44:54.897Z,28.40
2018-06-07T07:47:25.245Z,28.30
2018-06-07T07:49:55.495Z,28.40
2018-06-07T07:52:25.819Z,28.90
2018-06-07T07:54:56.253Z,29.20
2018-06-07T07:57:26.681Z,28.60
2018-06-07T07:59:56.969Z,28.00
2018-06-07T08:02:27.372Z,28.20
2018-06-07T08:04:57.688Z,28.80
2018-06-07T08:09:57.899Z,27.90
2018-06-07T08:12:28.154Z,28.00
2018-06-07T08:14:58.627Z,28.00
2018-06-07T08:17:28.861Z,28.60
2018-06-07T08:19:59.106Z,27.20
2018-06-07T08:22:29.366Z,28.10
2018-06-07T08:24:59.727Z,27.90
2018-06-07T08:27:30.096Z,27.60
2018-06-07T08:30:00.428Z,27.40
2018-06-07T08:32:30.777Z,27.40
2018-06-07T08:35:01.261Z,27.50
2018-06-07T08:37:31.674Z,26.90
2018-06-07T08:40:02.027Z,26.90
2018-06-07T08:42:32.299Z,27.20
2018-06-07T08:45:02.591Z,27.80
2018-06-07T08:50:02.825Z,27.70
2018-06-07T08:52:33.177Z,27.00
2018-06-07T08:55:03.622Z,28.00
2018-06-07T08:57:33.925Z,26.70
2018-06-07T09:00:04.347Z,26.60
2018-06-07T09:02:34.736Z,25.90
2018-06-07T09:05:05.111Z,26.10
2018-06-07T09:07:35.486Z,26.70
2018-06-07T09:10:05.834Z,26.70
2018-06-07T09:12:36.229Z,26.00
2018-06-07T09:15:06.596Z,26.70
2018-06-07T09:17:36.969Z,25.90
2018-06-07T09:20:07.291Z,26.20
2018-06-07T09:22:37.712Z,25.90
2018-06-07T09:25:08.083Z,26.10
2018-06-07T09:27:38.454Z,25.60
2018-06-07T09:30:08.761Z,25.60
2018-06-07T09:32:39.075Z,25.60
2018-06-07T09:35:09.394Z,25.40
2018-06-07T09:40:09.658Z,25.90
2018-06-07T09:45:09.830Z,26.00
2018-06-07T09:47:40.433Z,25.90
2018-06-07T09:50:10.724Z,25.90
2018-06-07T09:55:14.229Z,25.70
2018-06-07T09:57:44.672Z,26.50
2018-06-07T10:00:20.144Z,24.70
2018-06-07T10:02:50.508Z,25.10
2018-06-07T10:10:20.940Z,25.40
2018-06-07T10:12:51.216Z,24.90
2018-06-07T10:15:21.615Z,24.50
2018-06-07T10:17:52.006Z,24.90
2018-06-07T10:20:22.335Z,24.90
2018-06-07T10:22:52.674Z,24.80
2018-06-07T10:25:22.996Z,24.30
2018-06-07T10:27:53.372Z,24.50
2018-06-07T10:30:23.699Z,25.00
2018-06-07T10:32:54.006Z,24.90
2018-06-07T10:35:24.383Z,24.00
2018-06-07T10:37:54.716Z,24.40
2018-06-07T10:40:24.970Z,24.20
2018-06-07T10:42:55.329Z,24.40
2018-06-07T10:45:25.670Z,23.10
2018-06-07T10:47:55.913Z,24.50
2018-06-07T10:50:26.257Z,24.00
2018-06-07T10:52:56.655Z,25.20
2018-06-07T10:55:26.964Z,23.70
2018-06-07T10:57:57.295Z,23.30
2018-06-07T11:00:27.627Z,24.20
2018-06-07T11:02:58.035Z,24.30
2018-06-07T11:17:42.354Z,24.70
2018-06-07T11:20:12.763Z,23.10
2018-06-07T11:22:43.096Z,23.10
2018-06-07T11:25:13.415Z,24.20
2018-06-07T11:27:43.859Z,23.10
2018-06-07T11:30:14.159Z,23.60
2018-06-07T11:35:14.322Z,22.60
2018-06-07T11:40:14.559Z,23.20
2018-06-07T11:42:44.813Z,23.20
2018-06-07T11:45:15.075Z,22.90
2018-06-07T11:50:15.311Z,22.90
2018-06-07T11:52:45.752Z,23.40
2018-06-07T11:55:16.093Z,22.40
2018-06-07T11:57:46.429Z,22.60
2018-06-07T12:00:16.709Z,22.40
2018-06-07T12:02:46.938Z,22.00
2018-06-07T12:05:17.199Z,21.60
2018-06-07T12:07:47.532Z,21.40
2018-06-07T12:10:17.882Z,22.40
2018-06-07T12:12:48.195Z,21.50
2018-06-07T12:15:18.503Z,22.20
2018-06-07T12:17:48.975Z,22.30
2018-06-07T12:25:19.200Z,22.10
2018-06-07T12:27:49.473Z,22.70
2018-06-07T12:30:19.776Z,21.70
2018-06-07T12:32:50.199Z,21.70
2018-06-07T12:35:20.515Z,20.80
2018-06-07T12:40:20.802Z,21.60
2018-06-07T12:42:51.067Z,20.90
2018-06-07T12:45:21.399Z,20.80
2018-06-07T12:47:51.672Z,20.30
2018-06-07T12:50:21.932Z,20.30
2018-06-07T12:52:52.234Z,20.20
2018-06-07T12:55:22.591Z,19.80
2018-06-07T13:00:46.572Z,20.90
2018-06-07T13:03:19.783Z,19.90
2018-06-07T13:05:50.023Z,19.60
2018-06-07T13:08:20.408Z,20.50
2018-06-07T13:10:50.776Z,19.80
2018-06-07T13:13:21.108Z,19.40
2018-06-07T13:15:51.456Z,20.50
2018-06-07T13:18:21.723Z,20.00
2018-06-07T13:20:52.958Z,20.20
2018-06-07T13:25:55.811Z,19.70
2018-06-07T13:28:26.170Z,20.00
2018-06-07T13:30:56.461Z,19.00
2018-06-07T13:33:26.747Z,18.70
2018-06-07T13:35:57.025Z,18.10
2018-06-07T13:38:27.554Z,19.40
2018-06-07T13:40:57.824Z,19.90
2018-06-07T13:43:28.238Z,19.00
2018-06-07T13:45:58.678Z,19.10
2018-06-07T13:50:58.981Z,19.00
2018-06-07T13:53:29.257Z,18.50
2018-06-07T13:55:59.585Z,19.10
2018-06-07T13:58:29.874Z,19.80
2018-06-07T14:01:00.171Z,17.70
2018-06-07T14:03:30.518Z,17.50
2018-06-07T14:06:00.801Z,18.00
2018-06-07T14:11:01.068Z,18.40
2018-06-07T14:13:31.433Z,18.10
2018-06-07T14:16:01.738Z,18.60
2018-06-07T14:18:32.169Z,19.30
2018-06-07T14:21:02.539Z,18.60
2018-06-07T14:26:02.845Z,19.20
2018-06-07T14:28:33.109Z,19.80
2018-06-07T14:31:03.476Z,19.50
2018-06-07T14:33:33.859Z,19.30
2018-06-07T14:36:04.192Z,19.10
2018-06-07T14:38:34.428Z,18.80
2018-06-07T14:41:04.765Z,20.00
2018-06-07T14:43:35.128Z,18.30
2018-06-07T14:46:05.426Z,20.70
2018-06-07T14:48:35.719Z,19.20
2018-06-07T14:51:06.136Z,19.90
2018-06-07T14:53:36.423Z,18.90
2018-06-07T14:56:06.894Z,19.80
2018-06-07T14:58:37.230Z,19.60
2018-06-07T15:01:07.587Z,19.00
2018-06-07T15:03:37.916Z,20.00
2018-06-07T15:06:08.269Z,20.30
2018-06-07T15:08:38.584Z,20.00
2018-06-07T15:11:08.858Z,19.20
2018-06-07T15:13:39.394Z,19.10
2018-06-07T15:16:09.655Z,20.90
2018-06-07T15:18:39.954Z,20.40
2018-06-07T15:21:10.392Z,19.90
2018-06-07T15:23:40.991Z,20.00
2018-06-07T15:26:11.328Z,20.90
2018-06-07T15:28:41.659Z,20.10
2018-06-07T15:31:12.074Z,20.40
2018-06-07T15:33:42.357Z,19.70
2018-06-07T15:36:12.646Z,20.10
2018-06-07T15:38:42.928Z,20.90
2018-06-07T15:41:13.263Z,20.50
2018-06-07T15:43:43.544Z,21.40
2018-06-07T15:46:13.849Z,21.50
2018-06-07T15:48:44.143Z,20.00
2018-06-07T15:51:14.511Z,20.70
2018-06-07T15:53:44.829Z,20.40
2018-06-07T15:56:15.108Z,20.20
2018-06-07T15:58:45.483Z,21.00
2018-06-07T16:01:15.768Z,20.80
2018-06-07T16:03:46.019Z,20.70
2018-06-07T16:06:16.332Z,20.80
2018-06-07T16:08:46.637Z,21.10
2018-06-07T16:11:17.045Z,21.90
2018-06-07T16:13:47.334Z,21.30
2018-06-07T16:16:17.734Z,20.60
2018-06-07T16:18:48.064Z,22.20
2018-06-07T16:21:18.434Z,20.50
2018-06-07T16:23:48.637Z,20.90
2018-06-07T16:26:19.092Z,21.50
2018-06-07T16:28:49.514Z,20.50
2018-06-07T16:31:19.852Z,21.20
2018-06-07T16:33:50.235Z,20.30
2018-06-07T16:36:20.579Z,21.10
2018-06-07T16:38:50.851Z,20.80
2018-06-07T16:41:21.217Z,20.60
2018-06-07T16:43:51.583Z,21.70
2018-06-07T16:46:22.002Z,21.30
2018-06-07T16:48:52.403Z,20.90
2018-06-07T16:51:22.717Z,21.20
2018-06-07T16:53:53.020Z,21.20
2018-06-07T16:56:23.402Z,21.10
2018-06-07T16:58:53.907Z,20.80
2018-06-07T17:01:24.166Z,21.70
2018-06-07T17:06:24.440Z,21.00
2018-06-07T17:08:54.727Z,21.30
2018-06-07T17:11:25.060Z,21.60
2018-06-07T17:13:55.472Z,21.60
2018-06-07T17:16:26.155Z,22.20
2018-06-07T17:18:56.549Z,21.40
2018-06-07T17:21:27.091Z,21.90
2018-06-07T17:26:27.303Z,21.70
2018-06-07T17:28:57.724Z,22.60
2018-06-07T17:31:28.234Z,22.40
2018-06-07T17:33:58.717Z,21.60
2018-06-07T17:36:29.873Z,22.20
2018-06-07T17:39:00.148Z,22.20
2018-06-07T17:41:30.619Z,22.10
2018-06-07T17:44:00.956Z,22.10
2018-06-07T17:49:01.132Z,22.70
2018-06-07T17:54:01.387Z,21.70
2018-06-07T17:56:31.658Z,22.30
2018-06-07T17:59:01.938Z,21.70
2018-06-07T18:01:32.227Z,22.20
2018-06-07T18:04:02.463Z,22.10
2018-06-07T18:06:32.917Z,22.00
2018-06-07T18:09:03.253Z,22.30
2018-06-07T18:11:33.676Z,21.80
2018-06-07T18:14:04.129Z,22.00
2018-06-07T18:16:34.378Z,22.10
2018-06-07T18:19:05.107Z,21.90
2018-06-07T18:21:35.557Z,21.30
2018-06-07T18:24:05.882Z,21.60
2018-06-07T18:26:36.199Z,22.10
2018-06-07T18:29:06.583Z,22.10
2018-06-07T18:31:37.327Z,23.30
2018-06-07T18:34:07.707Z,23.50
2018-06-07T18:36:37.972Z,23.60
2018-06-07T18:39:09.257Z,24.40
2018-06-07T18:41:39.519Z,24.50
2018-06-07T18:44:09.886Z,25.60
2018-06-07T18:46:40.188Z,25.70
2018-06-07T18:49:10.504Z,25.70
2018-06-07T18:51:40.829Z,25.90
2018-06-07T18:54:11.284Z,26.30
2018-06-07T18:56:41.706Z,26.30
2018-06-07T18:59:12.105Z,26.20
2018-06-07T19:01:42.420Z,26.00
2018-06-07T19:06:42.769Z,26.70
2018-06-07T19:09:18.470Z,26.90
2018-06-07T19:11:48.831Z,26.90
2018-06-07T19:14:24.327Z,27.20
2018-06-07T19:16:54.810Z,27.20
2018-06-07T19:20:31.332Z,27.40
2018-06-07T19:23:01.628Z,27.80
2018-06-07T19:28:07.303Z,28.20
2018-06-07T19:30:37.705Z,28.40
2018-06-07T19:33:13.256Z,28.60
2018-06-07T19:35:43.949Z,28.90
2018-06-07T19:38:14.256Z,28.80
2018-06-07T19:40:49.717Z,28.80
2018-06-07T19:43:20.888Z,28.70
2018-06-07T19:45:51.328Z,28.60
2018-06-07T19:48:21.672Z,28.50
2018-06-07T19:50:52.060Z,28.80
2018-06-07T19:53:22.504Z,29.10
2018-06-07T19:58:22.758Z,29.10
2018-06-07T20:00:53.087Z,29.00
2018-06-07T20:03:23.517Z,29.50
2018-06-07T20:05:53.809Z,29.50
2018-06-07T20:08:24.244Z,29.70
2018-06-07T20:10:54.560Z,29.90
2018-06-07T20:13:25.112Z,30.00
2018-06-07T20:18:25.426Z,30.00
2018-06-07T20:20:55.709Z,30.10
2018-06-07T20:23:26.191Z,30.10
2018-06-07T20:25:56.572Z,30.50
2018-06-07T20:28:26.872Z,30.40
2018-06-07T20:30:57.176Z,30.70
2018-06-07T20:35:57.564Z,30.80
2018-06-07T20:38:27.957Z,30.80
2018-06-07T20:40:58.224Z,31.10
2018-06-07T20:45:58.563Z,32.10
2018-06-07T20:48:28.839Z,31.40
2018-06-07T20:50:59.168Z,31.40
2018-06-07T20:53:29.431Z,31.40
2018-06-07T20:55:59.836Z,31.50
2018-06-07T20:58:30.167Z,31.90
2018-06-07T21:01:00.463Z,32.30
2018-06-07T21:03:30.848Z,32.10
2018-06-07T21:06:01.177Z,32.20
2018-06-07T21:08:31.472Z,32.40
2018-06-07T21:11:01.792Z,32.90
2018-06-07T21:16:02.131Z,33.30
2018-06-07T21:18:32.469Z,33.00
2018-06-07T21:21:02.865Z,33.70
2018-06-07T21:23:33.211Z,33.80
2018-06-07T21:26:03.523Z,33.90
2018-06-07T21:31:03.778Z,34.30
2018-06-07T21:33:34.105Z,34.10
2018-06-07T21:36:04.360Z,34.10
2018-06-07T21:41:04.487Z,34.80
2018-06-07T21:43:34.899Z,34.40
2018-06-07T21:46:05.404Z,34.40
2018-06-07T21:48:35.753Z,34.40
2018-06-07T21:53:35.980Z,34.40
2018-06-07T21:56:06.415Z,34.30
2018-06-07T21:58:36.652Z,34.90
2018-06-07T22:01:06.960Z,35.30
2018-06-07T22:03:37.385Z,35.30
2018-06-07T22:08:37.634Z,35.20
2018-06-07T22:11:07.922Z,35.20
2018-06-07T22:13:38.256Z,35.20
2018-06-07T22:16:08.539Z,35.10
2018-06-07T22:18:38.871Z,35.10
2018-06-07T22:21:09.191Z,35.20
2018-06-07T22:23:39.504Z,35.50
2018-06-07T22:26:09.835Z,35.60
2018-06-07T22:28:40.199Z,35.70
2018-06-07T22:31:11.501Z,35.70
2018-06-07T22:33:41.923Z,36.10
2018-06-07T22:36:12.159Z,36.40
2018-06-07T22:38:42.476Z,36.70
2018-06-07T22:41:12.789Z,36.80
2018-06-07T22:43:43.543Z,36.40
2018-06-07T22:46:14.123Z,36.60
2018-06-07T22:48:44.499Z,36.80
2018-06-07T22:51:14.787Z,36.80
2018-06-07T22:53:45.092Z,36.80
2018-06-07T22:56:15.386Z,37.20
2018-06-07T22:58:45.759Z,37.20
2018-06-07T23:01:16.099Z,37.70
2018-06-07T23:03:46.400Z,37.20
2018-06-07T23:06:16.691Z,37.50
2018-06-07T23:11:17.052Z,37.10
2018-06-07T23:13:47.327Z,38.20
2018-06-07T23:16:17.623Z,38.30
2018-06-07T23:18:47.942Z,37.30
2018-06-07T23:21:18.236Z,37.20
2018-06-07T23:23:48.597Z,37.10
2018-06-07T23:26:18.850Z,37.20
2018-06-07T23:28:49.248Z,37.20
2018-06-07T23:31:19.483Z,37.00
2018-06-07T23:36:19.663Z,36.90
2018-06-07T23:38:49.970Z,37.30
2018-06-07T23:41:20.450Z,37.20
2018-06-07T23:43:50.926Z,37.50
2018-06-07T23:46:21.263Z,37.30
2018-06-07T23:48:51.526Z,37.40
2018-06-07T23:51:21.838Z,38.00
2018-06-07T23:53:52.125Z,37.90
2018-06-07T23:56:22.380Z,37.80
2018-06-07T23:58:52.691Z,38.20
